createdAt,value
2023-04-08T17:36:00.106Z,16.55
2023-04-08T17:38:30.205Z,18.67
2023-04-08T17:41:03.239Z,19.10
2023-04-08T17:43:53.872Z,20.30
2023-04-08T17:46:53.456Z,16.70
2023-04-08T17:49:26.728Z,19.15
2023-04-08T17:52:50.024Z,18.95
2023-04-08T17:56:06.130Z,21.05
2023-04-08T17:58:41.933Z,16.42
2023-04-08T18:01:32.998Z,16.92
2023-04-08T18:04:21.292Z,17.20
2023-04-08T18:06:57.468Z,14.40
2023-04-08T18:09:32.000Z,17.35
2023-04-08T18:12:00.522Z,17.17
2023-04-08T18:14:33.191Z,16.88
2023-04-08T18:17:04.827Z,17.00
2023-04-08T18:19:32.908Z,18.10
2023-04-08T18:22:01.285Z,18.35
2023-04-08T18:24:29.429Z,21.10
2023-04-08T18:27:04.475Z,22.85
2023-04-08T18:29:34.181Z,19.13
2023-04-08T18:32:05.597Z,21.88
2023-04-08T18:34:34.192Z,20.60
2023-04-08T18:37:05.388Z,15.77
2023-04-08T18:39:41.316Z,17.33
2023-04-08T18:42:21.170Z,16.98
2023-04-08T18:44:52.413Z,16.00
2023-04-08T18:47:32.931Z,15.07
2023-04-08T18:50:01.829Z,14.07
2023-04-08T18:52:32.736Z,11.57
2023-04-08T18:55:05.989Z,14.88
2023-04-08T18:57:35.030Z,14.02
2023-04-08T19:00:08.285Z,14.38
2023-04-08T19:02:39.446Z,14.10
2023-04-08T19:05:07.899Z,12.82
2023-04-08T19:07:35.845Z,13.23
2023-04-08T19:10:03.998Z,11.20
2023-04-08T19:12:32.159Z,12.18
2023-04-08T19:14:59.983Z,8.90
2023-04-08T19:17:28.061Z,12.57
2023-04-08T19:20:04.217Z,12.30
2023-04-08T19:22:32.404Z,11.65
2023-04-08T19:25:00.696Z,11.02
2023-04-08T19:27:28.783Z,10.18
2023-04-08T19:30:34.299Z,12.27
2023-04-08T19:33:02.203Z,11.95
2023-04-08T19:35:30.661Z,12.52
2023-04-08T19:37:58.494Z,12.35
2023-04-08T19:40:29.246Z,12.35
2023-04-08T19:43:02.424Z,12.10
2023-04-08T19:45:30.564Z,11.82
2023-04-08T19:47:59.182Z,10.00
2023-04-08T19:50:28.180Z,11.93
2023-04-08T19:53:04.380Z,11.02
2023-04-08T19:55:33.672Z,9.90
2023-04-08T19:58:02.676Z,9.57
2023-04-08T20:00:31.696Z,8.07
2023-04-08T20:03:00.057Z,8.70
2023-04-08T20:05:28.171Z,8.70
2023-04-08T20:07:56.424Z,8.13
2023-04-08T20:10:24.392Z,5.63
2023-04-08T20:12:53.779Z,8.60
2023-04-08T20:15:24.999Z,8.88
2023-04-08T20:17:54.221Z,9.05
2023-04-08T20:20:27.268Z,8.52
2023-04-08T20:22:56.448Z,8.85
2023-04-08T20:25:24.612Z,8.25
2023-04-08T20:27:53.510Z,8.18
2023-04-08T20:30:21.414Z,9.02
2023-04-08T20:32:49.866Z,9.27
2023-04-08T20:35:17.961Z,9.13
2023-04-08T20:37:46.581Z,8.00
2023-04-08T20:40:16.440Z,8.23
2023-04-08T20:42:46.381Z,8.07
2023-04-08T20:45:14.310Z,8.45
2023-04-08T20:47:42.384Z,8.55
2023-04-08T20:50:11.005Z,8.95
2023-04-08T20:52:39.187Z,8.82
2023-04-08T20:55:08.178Z,9.50
2023-04-08T20:57:36.713Z,9.05
2023-04-08T21:00:06.185Z,9.20
2023-04-08T21:02:34.961Z,9.35
2023-04-08T21:05:02.921Z,9.27
2023-04-08T21:07:31.502Z,9.68
2023-04-08T21:09:59.372Z,7.32
2023-04-08T21:12:27.162Z,8.02
2023-04-08T21:14:55.315Z,9.73
2023-04-08T21:17:23.230Z,9.75
2023-04-08T21:20:00.450Z,8.73
2023-04-08T21:24:58.893Z,10.75
2023-04-08T21:27:28.284Z,10.30
2023-04-08T21:29:56.541Z,10.75
2023-04-08T21:32:24.526Z,10.75
2023-04-08T21:34:55.541Z,11.63
2023-04-08T21:37:23.340Z,9.43
2023-04-08T21:39:51.644Z,9.90
2023-04-08T21:42:23.002Z,10.38
2023-04-08T21:44:50.986Z,9.27
2023-04-08T21:47:18.889Z,9.85
2023-04-08T21:49:46.676Z,9.38
2023-04-08T21:52:14.408Z,9.57
2023-04-08T21:54:42.147Z,8.10
2023-04-08T21:57:11.168Z,9.35
2023-04-08T21:59:38.905Z,9.00
2023-04-08T22:02:07.785Z,9.20
2023-04-08T22:04:36.471Z,9.95
2023-04-08T22:07:04.258Z,9.02
2023-04-08T22:09:32.108Z,10.00
2023-04-08T22:11:59.881Z,9.50
2023-04-08T22:14:27.589Z,10.30
2023-04-08T22:16:55.430Z,11.18
2023-04-08T22:19:23.338Z,9.45
2023-04-08T22:21:53.638Z,10.32
2023-04-08T22:24:21.519Z,10.07
2023-04-08T22:26:49.399Z,10.40
2023-04-08T22:29:17.547Z,10.90
2023-04-08T22:31:45.306Z,10.60
2023-04-08T22:34:13.054Z,11.20
2023-04-08T22:36:40.994Z,10.98
2023-04-08T22:39:08.927Z,10.52
2023-04-08T22:41:36.959Z,10.73
2023-04-08T22:44:04.964Z,10.98
2023-04-08T22:46:32.906Z,8.52
2023-04-08T22:49:00.789Z,8.27
2023-04-08T22:51:32.101Z,6.88
2023-04-08T22:53:59.835Z,8.77
2023-04-08T22:56:28.997Z,9.60
2023-04-08T22:58:57.304Z,8.45
2023-04-08T23:01:25.058Z,8.52
2023-04-08T23:03:52.895Z,8.23
2023-04-08T23:06:20.714Z,8.43
2023-04-08T23:08:48.434Z,8.85
2023-04-08T23:11:16.310Z,8.48
2023-04-08T23:13:44.029Z,8.18
2023-04-08T23:16:11.946Z,7.50
2023-04-08T23:18:39.729Z,5.80
2023-04-08T23:21:07.471Z,5.68
2023-04-08T23:23:35.467Z,6.80
2023-04-08T23:26:03.181Z,5.65
2023-04-08T23:28:31.015Z,6.68
2023-04-08T23:30:58.906Z,6.47
2023-04-08T23:33:26.775Z,6.97
2023-04-08T23:35:54.522Z,5.82
2023-04-08T23:38:22.236Z,6.00
2023-04-08T23:40:50.964Z,5.22
2023-04-08T23:43:18.685Z,5.40
2023-04-08T23:45:46.408Z,3.05
2023-04-08T23:48:14.157Z,6.65
2023-04-08T23:50:41.985Z,6.15
2023-04-08T23:53:09.693Z,6.75
2023-04-08T23:55:37.370Z,8.18
2023-04-08T23:58:10.769Z,6.10
